Time;durP1;ratioP1;P1;durP2;ratioP2;P2;SDS_P1;SDS_P2;PMS_P1;PMS_P2;Temp;Humidity;BMP_temperature;BMP_pressure;BME280_temperature;BME280_humidity;BME280_pressure;Samples;Min_cycle;Max_cycle;Signal;HPM_P1;HPM_P2
2022/11/07 00:01:13;;;;;;;;;;;11.60;77.10;;;;;;5075634;28;20138;-88
2022/11/07 00:03:38;;;;;;;;;;;11.60;77.00;;;;;;5070369;28;19916;-88
2022/11/07 00:06:04;;;;;;;;;;;11.60;76.80;;;;;;5072055;28;19918;-88
2022/11/07 00:08:32;;;;;;;;;;;11.50;77.20;;;;;;5071757;28;20299;-88
2022/11/07 00:10:58;;;;;;;;;;;11.50;77.40;;;;;;5073969;28;20334;-88
2022/11/07 00:13:26;;;;;;;;;;;11.50;77.40;;;;;;5074020;28;19961;-89
2022/11/07 00:16:02;;;;;;;;;;;11.50;77.70;;;;;;5082939;28;19920;-88
2022/11/07 00:18:27;;;;;;;;;;;11.50;77.70;;;;;;5057678;28;20015;-89
2022/11/07 00:20:53;;;;;;;;;;;11.50;77.80;;;;;;5076677;28;20326;-89
2022/11/07 00:23:18;;;;;;;;;;;11.50;77.90;;;;;;5095323;28;19918;-89
2022/11/07 00:25:44;;;;;;;;;;;11.50;78.00;;;;;;5074395;28;20419;-89
2022/11/07 00:28:09;;;;;;;;;;;11.50;78.10;;;;;;5091997;28;19916;-89
2022/11/07 00:30:35;;;;;;;;;;;11.50;78.20;;;;;;5070500;28;19966;-89
2022/11/07 00:33:00;;;;;;;;;;;11.40;78.20;;;;;;5072665;28;19912;-89
2022/11/07 00:35:25;;;;;;;;;;;11.50;78.30;;;;;;5067298;28;19912;-89
2022/11/07 00:37:52;;;;;;;;;;;11.60;77.90;;;;;;5080633;28;19916;-89
2022/11/07 00:40:18;;;;;;;;;;;11.50;78.10;;;;;;5073688;28;19912;-89
2022/11/07 00:42:43;;;;;;;;;;;11.50;78.30;;;;;;5077523;28;19912;-89
2022/11/07 00:45:10;;;;;;;;;;;11.60;78.00;;;;;;5087923;28;19923;-89
2022/11/07 00:47:36;;;;;;;;;;;11.50;78.10;;;;;;5091010;28;19961;-89
2022/11/07 00:50:01;;;;;;;;;;;11.60;78.10;;;;;;5070644;28;20370;-89
2022/11/07 00:52:27;;;;;;;;;;;11.60;77.90;;;;;;5071413;28;19923;-89
2022/11/07 00:54:52;;;;;;;;;;;11.60;78.00;;;;;;5070500;28;20061;-88
2022/11/07 00:57:18;;;;;;;;;;;11.60;77.90;;;;;;5073836;28;19946;-88
2022/11/07 00:59:43;;;;;;;;;;;11.60;77.80;;;;;;5073274;28;19955;-89
2022/11/07 01:02:09;;;;;;;;;;;11.60;78.00;;;;;;5060200;28;19917;-88
2022/11/07 01:07:18;;;;;;;;;;;11.60;77.70;;;;;;5087269;28;19920;-88
2022/11/07 01:09:44;;;;;;;;;;;11.60;77.80;;;;;;5073467;28;19908;-89
2022/11/07 01:12:09;;;;;;;;;;;11.50;78.00;;;;;;5064663;28;19919;-88
2022/11/07 01:14:34;;;;;;;;;;;11.50;78.20;;;;;;5062409;28;19998;-88
2022/11/07 01:17:00;;;;;;;;;;;11.40;78.60;;;;;;5071368;28;19942;-88
2022/11/07 01:19:26;;;;;;;;;;;11.40;78.60;;;;;;5070692;28;19908;-88
2022/11/07 01:21:51;;;;;;;;;;;11.30;78.80;;;;;;5072772;28;19916;-88
2022/11/07 01:24:16;;;;;;;;;;;11.40;78.70;;;;;;5068545;28;19908;-88
2022/11/07 01:26:43;;;;;;;;;;;11.50;78.60;;;;;;5067543;28;19920;-88
2022/11/07 01:29:09;;;;;;;;;;;11.50;78.40;;;;;;5060622;28;19908;-88
2022/11/07 01:31:34;;;;;;;;;;;11.50;78.70;;;;;;5066954;28;19923;-89
2022/11/07 01:34:00;;;;;;;;;;;11.30;78.90;;;;;;5090234;28;19916;-88
2022/11/07 01:36:26;;;;;;;;;;;11.30;79.20;;;;;;5073040;28;19916;-88
2022/11/07 01:38:52;;;;;;;;;;;11.30;79.30;;;;;;5073057;28;19919;-88
2022/11/07 01:41:23;;;;;;;;;;;11.30;79.20;;;;;;5071332;28;19916;-88
2022/11/07 01:43:51;;;;;;;;;;;11.30;79.20;;;;;;5069290;28;19919;-89
2022/11/07 01:46:17;;;;;;;;;;;11.20;79.60;;;;;;5071308;28;19957;-88
2022/11/07 01:48:52;;;;;;;;;;;11.30;79.50;;;;;;5091292;28;20014;-88
2022/11/07 01:51:19;;;;;;;;;;;11.10;79.70;;;;;;5075313;28;19912;-88
2022/11/07 01:53:44;;;;;;;;;;;11.20;79.90;;;;;;5070666;28;20003;-88
2022/11/07 01:56:13;;;;;;;;;;;11.20;79.80;;;;;;5075425;28;19951;-88
2022/11/07 01:58:40;;;;;;;;;;;11.20;79.80;;;;;;5088970;28;19913;-88
2022/11/07 02:01:06;;;;;;;;;;;11.30;79.60;;;;;;5096611;28;19950;-88
2022/11/07 02:03:31;;;;;;;;;;;11.10;79.90;;;;;;5072092;28;20010;-88
2022/11/07 02:05:59;;;;;;;;;;;11.10;80.00;;;;;;5089807;28;20009;-88
2022/11/07 02:08:24;;;;;;;;;;;11.10;80.00;;;;;;5082492;28;19896;-88
2022/11/07 02:10:51;;;;;;;;;;;11.10;80.10;;;;;;5078060;28;20270;-88
2022/11/07 02:13:20;;;;;;;;;;;11.10;80.10;;;;;;5084392;28;21211;-88
2022/11/07 02:15:46;;;;;;;;;;;11.10;80.10;;;;;;5069229;28;20006;-88
2022/11/07 02:18:11;;;;;;;;;;;11.00;80.30;;;;;;5098714;28;19954;-88
2022/11/07 02:20:37;;;;;;;;;;;11.00;80.40;;;;;;5066219;28;19912;-88
2022/11/07 02:23:05;;;;;;;;;;;11.00;80.40;;;;;;5086895;28;19926;-88
2022/11/07 02:25:31;;;;;;;;;;;11.10;80.20;;;;;;5070183;28;20341;-88
2022/11/07 02:27:58;;;;;;;;;;;11.00;80.30;;;;;;5071624;28;19912;-88
2022/11/07 02:30:26;;;;;;;;;;;11.00;80.40;;;;;;5067599;28;19917;-89
2022/11/07 02:32:51;;;;;;;;;;;11.00;80.40;;;;;;5080583;28;19912;-88
2022/11/07 02:35:35;;;;;;;;;;;11.00;80.40;;;;;;5083390;28;19999;-87
2022/11/07 02:38:20;;;;;;;;;;;11.00;80.50;;;;;;5072161;28;20274;-87
2022/11/07 02:40:48;;;;;;;;;;;11.00;80.70;;;;;;5070393;28;19912;-88
2022/11/07 02:43:15;;;;;;;;;;;10.90;80.80;;;;;;5079918;28;19916;-88
2022/11/07 02:45:42;;;;;;;;;;;10.90;81.00;;;;;;5080931;28;19912;-88
2022/11/07 02:48:08;;;;;;;;;;;10.90;81.10;;;;;;5068026;28;19934;-88
2022/11/07 02:50:33;;;;;;;;;;;11.00;81.10;;;;;;5068690;28;19920;-88
2022/11/07 02:52:59;;;;;;;;;;;10.90;81.10;;;;;;5066867;28;19919;-88
2022/11/07 02:55:24;;;;;;;;;;;10.80;81.30;;;;;;5068596;28;19920;-87
2022/11/07 02:57:49;;;;;;;;;;;10.80;81.40;;;;;;5072120;28;20253;-88
2022/11/07 03:00:15;;;;;;;;;;;10.80;81.60;;;;;;5067469;28;19916;-88
2022/11/07 03:02:45;;;;;;;;;;;10.80;81.40;;;;;;5070494;28;20394;-88
2022/11/07 03:05:15;;;;;;;;;;;10.80;81.20;;;;;;5086861;28;20191;-88
2022/11/07 03:07:41;;;;;;;;;;;10.80;81.60;;;;;;5066743;28;19912;-88
2022/11/07 03:10:07;;;;;;;;;;;10.90;81.30;;;;;;5062486;28;19919;-88
2022/11/07 03:12:33;;;;;;;;;;;11.00;81.00;;;;;;5061556;28;19920;-88
2022/11/07 03:14:59;;;;;;;;;;;11.00;80.90;;;;;;5064339;28;20266;-88
2022/11/07 03:17:24;;;;;;;;;;;11.10;80.60;;;;;;5065821;28;19920;-87
2022/11/07 03:19:49;;;;;;;;;;;11.10;80.50;;;;;;5067650;28;19998;-88
2022/11/07 03:22:15;;;;;;;;;;;11.20;80.30;;;;;;5066328;28;19935;-88
2022/11/07 03:24:40;;;;;;;;;;;11.20;80.00;;;;;;5081032;28;19916;-87
2022/11/07 03:27:06;;;;;;;;;;;11.20;80.10;;;;;;5067455;28;19957;-87
2022/11/07 03:29:31;;;;;;;;;;;11.20;80.10;;;;;;5092275;28;20227;-88
2022/11/07 03:31:57;;;;;;;;;;;11.30;80.00;;;;;;5077752;28;19913;-88
2022/11/07 03:34:22;;;;;;;;;;;11.30;80.10;;;;;;5067401;28;20323;-87
2022/11/07 03:36:48;;;;;;;;;;;11.30;80.00;;;;;;5066294;28;20338;-87
2022/11/07 03:39:13;;;;;;;;;;;11.20;80.00;;;;;;5069500;28;20335;-87
2022/11/07 03:41:39;;;;;;;;;;;11.30;79.90;;;;;;5069857;28;19959;-88
2022/11/07 03:44:04;;;;;;;;;;;11.30;80.00;;;;;;5080338;28;19923;-89
2022/11/07 03:46:30;;;;;;;;;;;11.20;80.10;;;;;;5078989;28;19916;-88
2022/11/07 03:48:55;;;;;;;;;;;11.20;80.00;;;;;;5086957;28;19916;-87
2022/11/07 03:51:21;;;;;;;;;;;11.20;80.30;;;;;;5078117;28;19912;-87
2022/11/07 03:53:46;;;;;;;;;;;11.10;80.20;;;;;;5075605;28;19934;-87
2022/11/07 03:56:12;;;;;;;;;;;11.10;80.50;;;;;;5075459;28;19924;-87
2022/11/07 03:58:38;;;;;;;;;;;11.10;80.50;;;;;;5072416;28;20015;-88
2022/11/07 04:01:04;;;;;;;;;;;11.10;80.30;;;;;;5062415;28;20014;-87
2022/11/07 04:03:30;;;;;;;;;;;11.10;80.30;;;;;;5080235;28;19919;-88
2022/11/07 04:05:55;;;;;;;;;;;11.20;80.20;;;;;;5073677;28;19916;-88
2022/11/07 04:08:21;;;;;;;;;;;11.10;80.40;;;;;;5089080;28;19920;-88
2022/11/07 04:10:46;;;;;;;;;;;11.10;80.60;;;;;;5074373;28;20280;-88
2022/11/07 04:18:40;;;;;;;;;;;11.10;80.40;;;;;;5092149;28;19978;-88
2022/11/07 04:21:05;;;;;;;;;;;11.10;80.60;;;;;;5069386;28;19923;-88
2022/11/07 04:23:31;;;;;;;;;;;11.10;80.50;;;;;;5071112;28;19913;-88
2022/11/07 04:28:40;;;;;;;;;;;11.00;80.80;;;;;;5087870;28;19923;-88
2022/11/07 04:31:06;;;;;;;;;;;11.00;80.80;;;;;;5072034;28;20273;-89
2022/11/07 04:33:31;;;;;;;;;;;11.10;80.80;;;;;;5071128;28;20451;-88
2022/11/07 04:35:57;;;;;;;;;;;11.00;80.90;;;;;;5086798;22;19953;-80
2022/11/07 04:38:22;;;;;;;;;;;11.10;80.80;;;;;;5064907;28;20447;-82
2022/11/07 04:40:55;;;;;;;;;;;11.10;80.80;;;;;;5073289;28;19917;-82
2022/11/07 04:43:20;;;;;;;;;;;11.10;80.40;;;;;;5067262;28;19912;-83
2022/11/07 04:45:46;;;;;;;;;;;11.10;80.50;;;;;;5089334;28;19922;-82
2022/11/07 04:48:12;;;;;;;;;;;11.10;80.50;;;;;;5075096;28;19947;-82
2022/11/07 04:50:37;;;;;;;;;;;11.10;80.80;;;;;;5072760;28;19916;-82
2022/11/07 04:53:03;;;;;;;;;;;11.00;80.90;;;;;;5088713;28;19930;-83
2022/11/07 04:55:31;;;;;;;;;;;11.10;80.60;;;;;;5073209;28;19919;-83
2022/11/07 04:57:57;;;;;;;;;;;11.30;80.10;;;;;;5084763;28;19912;-82
2022/11/07 05:00:23;;;;;;;;;;;11.20;80.20;;;;;;5064099;28;21276;-83
2022/11/07 05:02:49;;;;;;;;;;;11.10;80.40;;;;;;5085611;28;19924;-80
2022/11/07 05:05:14;;;;;;;;;;;11.20;80.20;;;;;;5099309;28;20008;-81
2022/11/07 05:07:40;;;;;;;;;;;11.20;80.30;;;;;;5072511;28;19919;-80
2022/11/07 05:10:06;;;;;;;;;;;11.20;80.20;;;;;;5071080;28;19944;-81
2022/11/07 05:12:31;;;;;;;;;;;11.20;80.20;;;;;;5091540;28;19919;-81
2022/11/07 05:14:57;;;;;;;;;;;11.10;80.60;;;;;;5096108;28;19912;-80
2022/11/07 05:17:23;;;;;;;;;;;11.10;80.30;;;;;;5108383;28;19912;-79
2022/11/07 05:19:48;;;;;;;;;;;11.10;80.60;;;;;;5090873;28;19923;-82
2022/11/07 05:24:58;;;;;;;;;;;11.10;80.40;;;;;;5088687;28;19931;-83
2022/11/07 05:27:23;;;;;;;;;;;11.10;80.20;;;;;;5084559;28;19912;-81
2022/11/07 05:29:49;;;;;;;;;;;11.10;80.30;;;;;;5094608;28;19912;-80
2022/11/07 05:32:14;;;;;;;;;;;11.10;80.30;;;;;;5070698;28;19938;-82
2022/11/07 05:34:40;;;;;;;;;;;11.10;80.20;;;;;;5083179;28;19912;-82
2022/11/07 05:37:06;;;;;;;;;;;11.10;80.20;;;;;;5073882;28;19920;-81
2022/11/07 05:39:32;;;;;;;;;;;11.10;80.30;;;;;;5079365;28;19912;-81
2022/11/07 05:41:58;;;;;;;;;;;11.10;80.60;;;;;;5088353;28;19946;-79
2022/11/07 05:44:24;;;;;;;;;;;11.10;80.30;;;;;;5091603;28;19913;-82
2022/11/07 05:46:49;;;;;;;;;;;11.10;80.20;;;;;;5080722;28;20018;-81
2022/11/07 05:49:14;;;;;;;;;;;11.20;80.10;;;;;;5071691;28;20003;-79
2022/11/07 05:51:42;;;;;;;;;;;11.20;80.10;;;;;;5072573;28;19912;-82
2022/11/07 05:54:07;;;;;;;;;;;11.10;80.00;;;;;;5089939;28;19912;-81
2022/11/07 05:56:33;;;;;;;;;;;11.20;80.00;;;;;;5069736;28;19919;-80
2022/11/07 05:58:58;;;;;;;;;;;11.10;80.10;;;;;;5072149;28;20407;-82
2022/11/07 06:01:24;;;;;;;;;;;11.10;80.30;;;;;;5072695;28;19916;-81
2022/11/07 06:03:49;;;;;;;;;;;11.10;80.20;;;;;;5084552;28;19924;-80
2022/11/07 06:06:14;;;;;;;;;;;11.10;80.20;;;;;;5092501;28;19955;-82
2022/11/07 06:08:40;;;;;;;;;;;11.10;80.20;;;;;;5097382;28;19901;-78
2022/11/07 06:11:05;;;;;;;;;;;11.10;80.20;;;;;;5092951;28;19968;-78
2022/11/07 06:13:31;;;;;;;;;;;11.10;80.20;;;;;;5077237;28;19939;-82
2022/11/07 06:15:57;;;;;;;;;;;11.10;80.00;;;;;;5092829;28;19912;-84
2022/11/07 06:18:22;;;;;;;;;;;11.10;80.00;;;;;;5093327;28;19923;-82
2022/11/07 06:20:48;;;;;;;;;;;11.10;80.30;;;;;;5095919;28;19923;-82
2022/11/07 06:23:13;;;;;;;;;;;11.10;80.00;;;;;;5072463;28;19920;-84
2022/11/07 06:25:39;;;;;;;;;;;11.20;80.10;;;;;;5068541;28;19912;-83
2022/11/07 06:28:06;;;;;;;;;;;11.30;79.90;;;;;;5069867;28;19913;-81
2022/11/07 06:30:31;;;;;;;;;;;11.30;79.60;;;;;;5074168;28;19912;-82
2022/11/07 06:33:01;;;;;;;;;;;11.30;79.70;;;;;;5090589;28;19946;-82
2022/11/07 06:35:26;;;;;;;;;;;11.40;79.70;;;;;;5091175;28;19912;-81
2022/11/07 06:37:52;;;;;;;;;;;11.40;79.30;;;;;;5088050;28;20103;-82
2022/11/07 06:40:17;;;;;;;;;;;11.40;79.50;;;;;;5073577;28;19930;-80
2022/11/07 06:42:42;;;;;;;;;;;11.50;79.40;;;;;;5086722;28;19950;-81
2022/11/07 06:45:08;;;;;;;;;;;11.50;79.40;;;;;;5077074;28;19932;-84
2022/11/07 06:47:34;;;;;;;;;;;11.50;79.10;;;;;;5100789;28;19975;-85
2022/11/07 06:49:59;;;;;;;;;;;11.60;79.10;;;;;;5067246;28;19916;-82
2022/11/07 06:52:24;;;;;;;;;;;11.60;78.80;;;;;;5078215;28;20424;-83
2022/11/07 06:54:50;;;;;;;;;;;11.60;78.90;;;;;;5080402;28;19970;-84
2022/11/07 06:57:15;;;;;;;;;;;11.60;78.80;;;;;;5081961;28;19912;-83
2022/11/07 06:59:41;;;;;;;;;;;11.80;78.30;;;;;;5081188;28;19908;-82
2022/11/07 07:02:09;;;;;;;;;;;11.80;78.10;;;;;;5093822;28;19969;-84
2022/11/07 07:04:34;;;;;;;;;;;11.90;77.90;;;;;;5100172;28;20369;-83
2022/11/07 07:07:00;;;;;;;;;;;12.00;77.50;;;;;;5097373;28;19973;-82
2022/11/07 07:09:25;;;;;;;;;;;12.00;77.70;;;;;;5082716;28;19908;-82
2022/11/07 07:11:51;;;;;;;;;;;12.00;77.70;;;;;;5082930;28;19924;-84
2022/11/07 07:14:16;;;;;;;;;;;12.10;77.40;;;;;;5076234;28;20010;-84
2022/11/07 07:16:41;;;;;;;;;;;12.10;77.50;;;;;;5098555;28;19912;-81
2022/11/07 07:19:07;;;;;;;;;;;12.10;77.50;;;;;;5097304;28;19913;-84
2022/11/07 07:21:33;;;;;;;;;;;12.20;77.10;;;;;;5079366;28;19916;-83
2022/11/07 07:23:58;;;;;;;;;;;12.20;77.60;;;;;;5096722;28;19912;-83
2022/11/07 07:26:24;;;;;;;;;;;12.20;77.70;;;;;;5093949;28;19927;-82
2022/11/07 07:28:49;;;;;;;;;;;12.30;77.50;;;;;;5073624;28;19912;-82
2022/11/07 07:31:19;;;;;;;;;;;12.30;77.00;;;;;;5073506;28;19919;-81
2022/11/07 07:33:45;;;;;;;;;;;12.40;77.00;;;;;;5065558;28;19919;-82
2022/11/07 07:36:11;;;;;;;;;;;12.50;76.80;;;;;;5074215;28;19920;-80
2022/11/07 07:38:37;;;;;;;;;;;12.50;76.60;;;;;;5075495;28;19912;-79
2022/11/07 07:41:02;;;;;;;;;;;12.50;76.70;;;;;;5077275;28;20022;-82
2022/11/07 07:43:28;;;;;;;;;;;12.50;76.60;;;;;;5094977;28;19916;-81
2022/11/07 07:45:57;;;;;;;;;;;12.50;76.50;;;;;;5095505;28;19908;-80
2022/11/07 07:48:22;;;;;;;;;;;12.50;76.60;;;;;;5076170;28;19931;-83
2022/11/07 07:50:50;;;;;;;;;;;12.60;76.20;;;;;;5064286;28;19917;-82
2022/11/07 07:53:16;;;;;;;;;;;12.60;76.10;;;;;;5088936;28;19916;-81
2022/11/07 07:55:42;;;;;;;;;;;12.60;76.00;;;;;;5075088;28;20006;-81
2022/11/07 07:58:07;;;;;;;;;;;12.70;75.90;;;;;;5096493;28;20286;-83
2022/11/07 08:00:33;;;;;;;;;;;12.70;75.60;;;;;;5073672;28;19972;-82
2022/11/07 08:03:03;;;;;;;;;;;12.70;75.50;;;;;;5104852;28;19931;-80
2022/11/07 08:05:28;;;;;;;;;;;12.70;75.50;;;;;;5074868;28;20386;-82
2022/11/07 08:07:54;;;;;;;;;;;12.80;75.40;;;;;;5087603;28;20007;-82
2022/11/07 08:10:19;;;;;;;;;;;12.70;75.50;;;;;;5091483;28;19912;-81
2022/11/07 08:12:46;;;;;;;;;;;12.80;75.40;;;;;;5093525;28;20006;-82
2022/11/07 08:15:15;;;;;;;;;;;13.00;75.00;;;;;;5093656;28;20358;-80
2022/11/07 08:17:41;;;;;;;;;;;13.00;75.10;;;;;;5091823;28;19916;-80
2022/11/07 08:20:10;;;;;;;;;;;13.00;75.10;;;;;;5094422;28;19909;-82
2022/11/07 08:22:36;;;;;;;;;;;13.10;75.10;;;;;;5092119;28;19970;-81
2022/11/07 08:25:02;;;;;;;;;;;13.10;75.00;;;;;;5082166;28;19900;-79
2022/11/07 08:27:28;;;;;;;;;;;13.10;75.00;;;;;;5092816;28;20125;-80
2022/11/07 08:29:53;;;;;;;;;;;13.10;75.10;;;;;;5091461;28;19962;-82
2022/11/07 08:32:19;;;;;;;;;;;13.10;75.00;;;;;;5076570;28;19922;-81
2022/11/07 08:34:44;;;;;;;;;;;13.20;75.00;;;;;;5070849;28;19913;-81
2022/11/07 08:37:09;;;;;;;;;;;13.20;75.20;;;;;;5084257;28;19980;-79
2022/11/07 08:39:35;;;;;;;;;;;13.30;74.90;;;;;;5111815;28;19908;-81
2022/11/07 08:42:00;;;;;;;;;;;13.30;74.90;;;;;;5079101;28;19924;-80
2022/11/07 08:44:26;;;;;;;;;;;13.30;75.10;;;;;;5088504;28;19912;-81
2022/11/07 08:46:51;;;;;;;;;;;13.20;75.20;;;;;;5095377;28;19938;-82
2022/11/07 08:49:17;;;;;;;;;;;13.20;75.60;;;;;;5095766;28;19920;-81
2022/11/07 08:51:42;;;;;;;;;;;13.20;75.70;;;;;;5096006;28;19911;-82
2022/11/07 08:54:08;;;;;;;;;;;13.30;75.80;;;;;;5090457;28;20356;-81
2022/11/07 08:56:33;;;;;;;;;;;13.30;75.60;;;;;;5082247;28;19912;-81
2022/11/07 08:58:59;;;;;;;;;;;13.30;75.70;;;;;;5071276;28;20278;-81
2022/11/07 09:01:24;;;;;;;;;;;13.30;75.80;;;;;;5084267;28;19920;-81
2022/11/07 09:03:50;;;;;;;;;;;13.30;75.80;;;;;;5074295;28;19951;-81
2022/11/07 09:06:16;;;;;;;;;;;13.30;75.90;;;;;;5105642;28;19973;-81
2022/11/07 09:08:42;;;;;;;;;;;13.40;75.60;;;;;;5078447;28;19916;-82
2022/11/07 09:11:07;;;;;;;;;;;13.50;75.50;;;;;;5074374;28;19919;-82
2022/11/07 09:13:33;;;;;;;;;;;13.40;75.50;;;;;;5077151;28;20519;-81
2022/11/07 09:15:59;;;;;;;;;;;13.40;75.50;;;;;;5077060;28;19912;-82
2022/11/07 09:18:25;;;;;;;;;;;13.40;75.80;;;;;;5077214;28;19965;-83
2022/11/07 09:20:51;;;;;;;;;;;13.50;75.90;;;;;;5092504;28;19916;-83
2022/11/07 09:23:16;;;;;;;;;;;13.50;75.90;;;;;;5093623;28;19923;-82
2022/11/07 09:25:42;;;;;;;;;;;13.40;76.00;;;;;;5072490;28;19934;-83
2022/11/07 09:28:07;;;;;;;;;;;13.50;76.00;;;;;;5079593;28;20007;-82
2022/11/07 09:30:32;;;;;;;;;;;13.50;75.90;;;;;;5096710;28;19908;-82
2022/11/07 09:32:58;;;;;;;;;;;13.50;76.00;;;;;;5076029;28;19920;-83
2022/11/07 09:35:24;;;;;;;;;;;13.50;76.20;;;;;;5093081;28;20431;-82
2022/11/07 09:37:49;;;;;;;;;;;13.60;76.10;;;;;;5101384;28;19916;-84
2022/11/07 09:40:22;;;;;;;;;;;13.60;75.80;;;;;;5075638;28;20003;-82
2022/11/07 09:42:59;;;;;;;;;;;13.70;75.70;;;;;;5093924;28;20002;-84
2022/11/07 09:45:27;;;;;;;;;;;13.60;76.10;;;;;;5072621;28;19912;-79
2022/11/07 09:47:56;;;;;;;;;;;13.80;76.00;;;;;;5092817;28;20078;-81
2022/11/07 09:50:50;;;;;;;;;;;13.80;75.70;;;;;;5088385;28;20377;-94
2022/11/07 09:53:21;;;;;;;;;;;13.90;75.60;;;;;;5092453;28;19912;-81
2022/11/07 09:55:51;;;;;;;;;;;14.00;75.70;;;;;;5096275;28;19908;-81
2022/11/07 09:58:24;;;;;;;;;;;14.00;75.30;;;;;;5096448;28;19908;-80
2022/11/07 10:00:50;;;;;;;;;;;14.10;75.20;;;;;;5094685;28;20010;-80
2022/11/07 10:03:16;;;;;;;;;;;14.00;75.20;;;;;;5092981;28;20297;-81
2022/11/07 10:05:50;;;;;;;;;;;14.00;75.10;;;;;;5093221;28;19912;-80
2022/11/07 10:08:39;;;;;;;;;;;14.00;75.30;;;;;;5077224;28;20323;-80
2022/11/07 10:11:08;;;;;;;;;;;14.00;75.40;;;;;;5089204;28;19912;-80
2022/11/07 10:13:48;;;;;;;;;;;14.10;75.30;;;;;;5076461;28;19995;-79
2022/11/07 10:16:16;;;;;;;;;;;14.10;75.40;;;;;;5076066;28;19915;-80
2022/11/07 10:18:45;;;;;;;;;;;14.10;75.60;;;;;;5077037;28;19908;-81
2022/11/07 10:21:30;;;;;;;;;;;14.10;75.80;;;;;;5076357;28;19919;-79
2022/11/07 10:24:04;;;;;;;;;;;14.00;77.80;;;;;;5091356;28;19920;-80
2022/11/07 10:26:30;;;;;;;;;;;13.90;79.40;;;;;;5056723;28;19916;-79
2022/11/07 10:28:58;;;;;;;;;;;13.70;80.90;;;;;;5078013;28;19935;-79
2022/11/07 10:31:26;;;;;;;;;;;13.60;82.00;;;;;;5078291;28;19957;-80
2022/11/07 10:33:57;;;;;;;;;;;13.50;82.50;;;;;;5093615;28;19919;-79
2022/11/07 10:36:24;;;;;;;;;;;13.40;83.10;;;;;;5095022;28;19924;-80
2022/11/07 10:38:50;;;;;;;;;;;13.30;83.70;;;;;;5077881;28;20014;-80
2022/11/07 10:41:20;;;;;;;;;;;13.30;83.80;;;;;;5075915;28;19955;-80
2022/11/07 10:43:48;;;;;;;;;;;13.30;84.10;;;;;;5067770;28;19912;-79
2022/11/07 10:46:33;;;;;;;;;;;13.20;84.50;;;;;;5060065;28;19989;-81
2022/11/07 10:48:59;;;;;;;;;;;13.10;85.30;;;;;;5079156;28;19912;-82
2022/11/07 10:51:38;;;;;;;;;;;13.10;85.50;;;;;;5079696;28;19908;-80
2022/11/07 10:54:17;;;;;;;;;;;13.00;86.30;;;;;;5076655;28;19997;-80
2022/11/07 10:56:46;;;;;;;;;;;13.00;86.90;;;;;;5101786;28;19896;-80
2022/11/07 10:59:13;;;;;;;;;;;13.00;86.80;;;;;;5094179;28;19912;-81
2022/11/07 11:01:39;;;;;;;;;;;13.00;87.40;;;;;;5106054;28;20049;-81
2022/11/07 11:04:04;;;;;;;;;;;13.10;87.40;;;;;;5095627;28;20015;-81
2022/11/07 11:06:30;;;;;;;;;;;13.00;87.70;;;;;;5077169;28;20064;-80
2022/11/07 11:08:56;;;;;;;;;;;13.10;87.70;;;;;;5095709;28;19951;-79
2022/11/07 11:11:29;;;;;;;;;;;13.10;87.90;;;;;;5093766;28;20356;-81
2022/11/07 11:14:02;;;;;;;;;;;13.10;87.60;;;;;;5092203;28;19931;-81
2022/11/07 11:16:29;;;;;;;;;;;13.10;87.60;;;;;;5078204;28;19908;-79
2022/11/07 11:18:56;;;;;;;;;;;13.20;87.40;;;;;;5075754;28;20106;-80
2022/11/07 11:21:22;;;;;;;;;;;13.30;87.00;;;;;;5089607;28;19912;-79
2022/11/07 11:23:48;;;;;;;;;;;13.40;86.80;;;;;;5097411;28;19931;-81
2022/11/07 11:26:15;;;;;;;;;;;13.50;86.50;;;;;;5077452;28;19995;-80
2022/11/07 11:28:46;;;;;;;;;;;13.50;86.60;;;;;;5097367;28;20304;-79
2022/11/07 11:31:14;;;;;;;;;;;13.40;86.20;;;;;;5096229;28;19926;-80
2022/11/07 11:33:42;;;;;;;;;;;13.40;86.10;;;;;;5074869;28;19912;-80
2022/11/07 11:36:10;;;;;;;;;;;13.40;86.10;;;;;;5097229;28;19912;-80
2022/11/07 11:38:36;;;;;;;;;;;13.40;86.00;;;;;;5078464;28;19915;-80
2022/11/07 11:41:28;;;;;;;;;;;13.50;86.10;;;;;;5096521;28;20277;-80
2022/11/07 11:43:56;;;;;;;;;;;13.50;85.90;;;;;;5076792;28;19923;-82
2022/11/07 11:46:28;;;;;;;;;;;13.60;85.40;;;;;;5075168;28;20337;-82
2022/11/07 11:48:57;;;;;;;;;;;13.70;85.10;;;;;;5082379;28;19912;-81
2022/11/07 11:51:27;;;;;;;;;;;13.80;84.80;;;;;;5093659;28;19957;-82
2022/11/07 11:53:53;;;;;;;;;;;13.80;84.60;;;;;;5086045;28;20010;-79
2022/11/07 11:56:21;;;;;;;;;;;13.80;84.20;;;;;;5077432;28;20544;-80
2022/11/07 11:59:15;;;;;;;;;;;14.00;84.20;;;;;;5098247;28;19909;-81
2022/11/07 12:01:51;;;;;;;;;;;14.00;83.90;;;;;;5059027;28;19948;-81
2022/11/07 12:04:35;;;;;;;;;;;14.10;83.80;;;;;;5076734;28;20397;-80
2022/11/07 12:07:23;;;;;;;;;;;14.10;83.70;;;;;;5080526;28;19912;-81
2022/11/07 12:09:55;;;;;;;;;;;14.10;83.50;;;;;;5035294;28;19912;-82
2022/11/07 12:12:24;;;;;;;;;;;14.20;83.10;;;;;;5072827;28;19942;-81
2022/11/07 12:14:53;;;;;;;;;;;14.10;83.00;;;;;;5096509;28;19908;-81
2022/11/07 12:17:38;;;;;;;;;;;14.20;82.40;;;;;;5094308;28;19958;-82
2022/11/07 12:20:10;;;;;;;;;;;14.20;82.50;;;;;;5053701;22;19925;-82
2022/11/07 12:22:38;;;;;;;;;;;14.30;82.00;;;;;;5043026;28;20398;-82
2022/11/07 12:25:08;;;;;;;;;;;14.20;81.90;;;;;;5052917;28;19935;-83
2022/11/07 12:27:43;;;;;;;;;;;14.20;81.90;;;;;;5053976;28;19909;-82
2022/11/07 12:30:16;;;;;;;;;;;14.20;82.20;;;;;;5029720;28;20015;-82
2022/11/07 12:32:41;;;;;;;;;;;14.20;81.80;;;;;;5048739;28;19913;-83
2022/11/07 12:35:22;;;;;;;;;;;14.10;82.20;;;;;;5032735;28;19909;-82
2022/11/07 12:38:05;;;;;;;;;;;14.10;82.10;;;;;;5030165;28;20003;-82
2022/11/07 12:40:49;;;;;;;;;;;14.20;81.80;;;;;;5006212;28;19913;-82
2022/11/07 12:43:14;;;;;;;;;;;14.30;81.60;;;;;;5032527;28;19927;-82
2022/11/07 12:45:43;;;;;;;;;;;14.20;81.80;;;;;;5029763;28;20421;-83
2022/11/07 12:48:08;;;;;;;;;;;14.20;81.70;;;;;;5033029;28;20400;-83
2022/11/07 12:50:42;;;;;;;;;;;14.30;81.40;;;;;;5024568;28;19913;-86
2022/11/07 12:53:11;;;;;;;;;;;14.30;81.30;;;;;;5035965;28;19952;-82
2022/11/07 12:55:44;;;;;;;;;;;14.30;81.80;;;;;;5011883;28;20385;-81
2022/11/07 12:58:19;;;;;;;;;;;14.10;82.10;;;;;;5021891;28;19967;-82
2022/11/07 13:00:46;;;;;;;;;;;14.20;81.60;;;;;;5024563;28;19939;-83
2022/11/07 13:03:15;;;;;;;;;;;14.20;80.90;;;;;;5041357;28;19916;-84
2022/11/07 13:05:50;;;;;;;;;;;14.20;81.10;;;;;;5023316;28;19924;-84
2022/11/07 13:08:25;;;;;;;;;;;14.30;80.90;;;;;;5008360;28;20368;-86
2022/11/07 13:11:09;;;;;;;;;;;14.30;80.40;;;;;;5033649;28;19913;-85
2022/11/07 13:13:35;;;;;;;;;;;14.30;80.60;;;;;;5023355;28;20253;-86
2022/11/07 13:16:04;;;;;;;;;;;14.50;80.00;;;;;;5023548;28;19981;-85
2022/11/07 13:18:30;;;;;;;;;;;14.60;79.70;;;;;;5023030;28;19919;-85
2022/11/07 13:21:03;;;;;;;;;;;14.60;79.40;;;;;;5032092;28;20322;-85
2022/11/07 13:23:29;;;;;;;;;;;14.60;79.50;;;;;;5015103;28;19921;-85
2022/11/07 13:25:58;;;;;;;;;;;14.60;78.70;;;;;;5034014;28;20440;-87
2022/11/07 13:28:26;;;;;;;;;;;14.60;79.10;;;;;;5030678;28;19913;-88
2022/11/07 13:30:55;;;;;;;;;;;14.60;78.30;;;;;;5032185;28;19963;-86
2022/11/07 13:33:26;;;;;;;;;;;14.60;78.40;;;;;;5029103;28;19917;-86
2022/11/07 13:35:53;;;;;;;;;;;14.60;78.40;;;;;;5048918;28;19909;-86
2022/11/07 13:38:22;;;;;;;;;;;14.50;78.60;;;;;;5036541;28;20403;-85
2022/11/07 13:40:48;;;;;;;;;;;14.50;78.50;;;;;;5045922;28;20330;-86
2022/11/07 13:43:22;;;;;;;;;;;14.60;78.00;;;;;;5038274;28;19928;-86
2022/11/07 13:45:54;;;;;;;;;;;14.60;77.80;;;;;;5017596;28;20269;-86
2022/11/07 13:48:19;;;;;;;;;;;14.60;77.50;;;;;;5034006;28;19932;-86
2022/11/07 13:50:53;;;;;;;;;;;14.60;77.80;;;;;;5033906;28;19917;-86
2022/11/07 13:53:26;;;;;;;;;;;14.50;77.80;;;;;;5026885;28;19971;-86
2022/11/07 13:55:59;;;;;;;;;;;14.50;77.30;;;;;;5020505;28;19920;-87
2022/11/07 13:58:26;;;;;;;;;;;14.50;77.30;;;;;;5029230;28;19952;-86
2022/11/07 14:00:52;;;;;;;;;;;14.50;76.90;;;;;;5011820;28;19914;-86
2022/11/07 14:03:26;;;;;;;;;;;14.50;77.00;;;;;;5023497;28;20431;-87
2022/11/07 14:05:54;;;;;;;;;;;14.60;76.80;;;;;;5024019;28;19978;-86
2022/11/07 14:08:31;;;;;;;;;;;14.50;76.80;;;;;;5034228;28;19934;-86
2022/11/07 14:10:57;;;;;;;;;;;14.60;76.40;;;;;;5029246;28;19936;-84
2022/11/07 14:13:49;;;;;;;;;;;14.60;76.30;;;;;;5011909;28;20366;-85
2022/11/07 14:16:19;;;;;;;;;;;14.60;76.40;;;;;;5028232;28;19955;-83
2022/11/07 14:18:49;;;;;;;;;;;14.50;77.00;;;;;;5021435;28;19913;-82
2022/11/07 14:21:19;;;;;;;;;;;14.60;76.50;;;;;;5025271;28;20012;-82
2022/11/07 14:23:45;;;;;;;;;;;14.60;76.20;;;;;;5011400;28;19944;-83
2022/11/07 14:26:37;;;;;;;;;;;14.50;76.40;;;;;;5027375;28;20369;-83
2022/11/07 14:29:02;;;;;;;;;;;14.60;76.00;;;;;;5032021;28;19962;-82
2022/11/07 14:31:32;;;;;;;;;;;14.60;75.90;;;;;;5052969;28;20003;-83
2022/11/07 14:34:00;;;;;;;;;;;14.70;75.60;;;;;;5045330;28;20289;-83